Time;durP1;ratioP1;P1;durP2;ratioP2;P2;SDS_P1;SDS_P2;PMS_P1;PMS_P2;Temp;Humidity;BMP_temperature;BMP_pressure;BME280_temperature;BME280_humidity;BME280_pressure;Samples;Min_cycle;Max_cycle;Signal;HPM_P1;HPM_P2
2022/07/23 00:02:19;;;;;;;2.15;0.90;;;25.00;50.50;24.20;101477.00;;;;5025301;28;20436;-66
2022/07/23 00:05:05;;;;;;;2.83;1.08;;;25.00;50.60;24.20;101473.00;;;;5025731;28;20041;-66
2022/07/23 00:07:51;;;;;;;1.13;0.70;;;25.00;50.50;24.20;101458.00;;;;5023012;28;20051;-66
2022/07/23 00:10:38;;;;;;;1.00;0.90;;;25.00;50.60;24.20;101461.00;;;;5021171;28;20587;-66
2022/07/23 00:13:24;;;;;;;1.25;1.15;;;25.00;50.50;24.20;101469.00;;;;5025748;28;20498;-66
2022/07/23 00:16:10;;;;;;;1.05;0.95;;;25.00;50.50;24.20;101467.00;;;;5019607;28;20049;-66
2022/07/23 00:18:56;;;;;;;1.10;1.00;;;25.00;50.50;24.20;101461.00;;;;5022499;28;20049;-66
2022/07/23 00:21:42;;;;;;;2.35;0.88;;;25.00;50.50;24.20;101458.00;;;;5020960;28;20046;-66
2022/07/23 00:24:28;;;;;;;1.27;0.98;;;25.00;50.50;24.20;101465.00;;;;5024899;28;20442;-66
2022/07/23 00:27:14;;;;;;;3.95;1.00;;;25.00;50.50;24.20;101460.00;;;;5024420;28;20485;-66
2022/07/23 00:30:00;;;;;;;1.20;0.88;;;25.00;50.50;24.20;101464.00;;;;5026554;28;20041;-66
2022/07/23 00:32:56;;;;;;;1.10;0.90;;;25.00;50.50;24.20;101454.00;;;;5023917;28;20049;-66
2022/07/23 00:35:42;;;;;;;3.20;1.17;;;25.00;50.50;24.20;101451.00;;;;5017737;28;20475;-66
2022/07/23 00:38:28;;;;;;;1.08;0.95;;;24.90;50.50;24.20;101456.00;;;;5022174;28;20041;-66
2022/07/23 00:41:14;;;;;;;1.17;0.93;;;25.00;50.50;24.20;101451.00;;;;5023464;28;20306;-66
2022/07/23 00:44:18;;;;;;;1.05;0.80;;;25.00;50.50;24.20;101452.00;;;;5019703;28;20041;-66
2022/07/23 00:47:05;;;;;;;0.77;0.70;;;25.00;50.60;24.20;101455.00;;;;5024731;28;20037;-66
2022/07/23 00:49:51;;;;;;;2.08;0.98;;;25.00;50.60;24.20;101449.00;;;;5016409;28;20030;-66
2022/07/23 00:52:38;;;;;;;1.33;1.00;;;25.00;50.60;24.20;101458.00;;;;5027344;28;20037;-66
2022/07/23 00:55:24;;;;;;;1.23;1.10;;;25.00;50.60;24.20;101462.00;;;;5025295;28;20483;-66
2022/07/23 00:58:10;;;;;;;2.65;1.15;;;24.90;50.50;24.20;101454.00;;;;5023146;28;20056;-66
2022/07/23 01:00:56;;;;;;;1.52;0.90;;;25.00;50.50;24.20;101453.00;;;;5039299;28;20049;-66
2022/07/23 01:03:42;;;;;;;1.23;0.93;;;24.90;50.50;24.10;101443.00;;;;5024612;28;20042;-66
2022/07/23 01:06:28;;;;;;;1.10;1.00;;;25.00;50.60;24.20;101434.00;;;;5025721;28;20033;-66
2022/07/23 01:09:14;;;;;;;1.42;0.93;;;25.00;50.60;24.20;101445.00;;;;5022087;28;20037;-66
2022/07/23 01:12:00;;;;;;;1.02;0.85;;;25.00;51.00;24.20;101434.00;;;;5021949;28;20043;-66
2022/07/23 01:14:57;;;;;;;1.65;1.17;;;24.90;50.60;24.10;101428.00;;;;5019632;28;20120;-66
2022/07/23 01:17:43;;;;;;;0.90;0.80;;;24.90;50.70;24.10;101429.00;;;;5020225;28;20052;-66
2022/07/23 01:20:30;;;;;;;0.90;0.80;;;25.00;50.70;24.10;101428.00;;;;5019946;28;20079;-66
2022/07/23 01:23:16;;;;;;;0.83;0.80;;;25.00;50.70;24.10;101426.00;;;;5024551;28;20081;-66
2022/07/23 01:26:02;;;;;;;1.13;1.02;;;24.90;50.70;24.20;101425.00;;;;5019645;28;20030;-66
2022/07/23 01:28:48;;;;;;;2.42;1.00;;;24.90;50.70;24.10;101417.00;;;;5021036;28;20049;-66
2022/07/23 01:31:34;;;;;;;1.20;0.90;;;24.90;50.70;24.10;101415.00;;;;5020527;28;20029;-66
2022/07/23 01:34:20;;;;;;;1.02;0.95;;;24.90;50.70;24.10;101416.00;;;;5022406;28;20049;-66
2022/07/23 01:37:06;;;;;;;1.00;0.82;;;25.00;50.70;24.10;101406.00;;;;5025843;28;20029;-66
2022/07/23 01:39:52;;;;;;;1.58;1.05;;;24.90;50.70;24.10;101414.00;;;;5019844;28;20402;-66
2022/07/23 01:42:38;;;;;;;1.30;1.20;;;24.90;50.70;24.10;101415.00;;;;5018987;28;20042;-66
2022/07/23 01:45:24;;;;;;;1.02;0.90;;;24.90;50.80;24.10;101413.00;;;;5022433;28;20044;-66
2022/07/23 01:48:10;;;;;;;1.50;1.10;;;24.90;50.80;24.10;101409.00;;;;5023630;28;20046;-66
2022/07/23 01:50:57;;;;;;;2.10;1.02;;;24.90;50.70;24.10;101410.00;;;;5018513;28;20403;-66
2022/07/23 01:53:43;;;;;;;2.08;1.00;;;25.00;50.80;24.10;101413.00;;;;5020910;28;20033;-66
2022/07/23 01:56:29;;;;;;;1.83;1.10;;;24.90;50.80;24.10;101419.00;;;;5018036;28;20052;-66
2022/07/23 01:59:15;;;;;;;1.40;1.08;;;24.90;50.80;24.10;101413.00;;;;5020697;28;20046;-66
2022/07/23 02:02:01;;;;;;;1.10;1.00;;;24.90;50.80;24.10;101411.00;;;;5019594;28;20431;-66
2022/07/23 02:04:47;;;;;;;1.23;1.02;;;24.90;50.90;24.10;101409.00;;;;5024136;28;20057;-66
2022/07/23 02:07:33;;;;;;;1.23;1.05;;;24.90;50.80;24.10;101409.00;;;;5021894;28;20567;-66
2022/07/23 02:10:19;;;;;;;1.45;1.00;;;24.90;50.80;24.10;101411.00;;;;5020896;28;20044;-66
2022/07/23 02:13:05;;;;;;;2.25;1.10;;;24.90;50.80;24.10;101405.00;;;;5020990;28;20134;-66
2022/07/23 02:15:51;;;;;;;2.72;1.20;;;24.90;50.80;24.10;101411.00;;;;5019447;28;20053;-66
2022/07/23 02:18:37;;;;;;;1.10;1.00;;;25.00;50.90;24.10;101418.00;;;;5027320;28;20045;-66
2022/07/23 02:21:23;;;;;;;3.72;1.33;;;24.90;50.90;24.10;101413.00;;;;5020937;28;20041;-66
2022/07/23 02:24:09;;;;;;;1.00;0.90;;;24.90;50.90;24.10;101414.00;;;;5024109;28;20034;-66
2022/07/23 02:26:55;;;;;;;2.17;1.20;;;24.90;50.90;24.10;101412.00;;;;5027629;28;20189;-66
2022/07/23 02:29:41;;;;;;;1.75;1.10;;;24.90;50.90;24.10;101412.00;;;;5021443;28;20041;-66
2022/07/23 02:32:28;;;;;;;1.50;1.30;;;24.90;50.90;24.10;101405.00;;;;5029796;28;20098;-66
2022/07/23 02:35:14;;;;;;;2.92;1.20;;;24.90;50.90;24.10;101402.00;;;;5026306;28;20045;-66
2022/07/23 02:38:00;;;;;;;0.82;0.82;;;24.80;50.90;24.10;101408.00;;;;5021203;28;20384;-66
2022/07/23 02:40:46;;;;;;;1.83;1.02;;;24.80;50.90;24.10;101401.00;;;;5022439;28;20144;-66
2022/07/23 02:43:32;;;;;;;2.13;1.13;;;24.80;50.90;24.00;101409.00;;;;5016803;28;20503;-66
2022/07/23 02:46:18;;;;;;;1.98;1.10;;;24.90;51.00;24.00;101416.00;;;;5026435;28;20038;-66
2022/07/23 02:49:04;;;;;;;2.20;1.00;;;24.80;51.00;24.00;101396.00;;;;5025480;28;20041;-66
2022/07/23 02:51:50;;;;;;;1.42;1.08;;;24.90;51.00;24.00;101397.00;;;;5028653;28;20069;-66
2022/07/23 02:54:37;;;;;;;2.15;0.93;;;24.80;51.00;24.00;101393.00;;;;5024642;28;20049;-66
2022/07/23 02:57:23;;;;;;;1.25;1.13;;;24.80;51.10;24.00;101401.00;;;;5028352;28;20042;-66
2022/07/23 03:00:10;;;;;;;1.40;1.15;;;24.80;51.10;24.00;101414.00;;;;5027309;28;20039;-66
2022/07/23 03:02:56;;;;;;;2.03;1.07;;;24.80;51.00;24.00;101415.00;;;;5024163;28;20076;-66
2022/07/23 03:05:42;;;;;;;2.80;1.23;;;24.80;51.10;24.00;101417.00;;;;5026467;28;20797;-66
2022/07/23 03:08:28;;;;;;;1.67;1.10;;;24.80;51.00;24.00;101413.00;;;;5028432;28;20458;-66
2022/07/23 03:11:14;;;;;;;2.15;1.30;;;24.80;51.10;24.00;101413.00;;;;5024610;28;20251;-66
2022/07/23 03:14:00;;;;;;;1.45;1.23;;;24.80;51.00;24.00;101417.00;;;;5025277;28;20514;-66
2022/07/23 03:16:46;;;;;;;1.25;1.15;;;24.80;51.10;24.00;101410.00;;;;5025761;28;20041;-66
2022/07/23 03:19:32;;;;;;;1.20;0.98;;;24.80;51.10;24.00;101417.00;;;;5022760;28;20128;-66
2022/07/23 03:22:18;;;;;;;2.70;1.27;;;24.80;51.10;24.00;101420.00;;;;5026048;28;20131;-66
2022/07/23 03:25:05;;;;;;;1.77;1.00;;;24.80;51.10;24.00;101413.00;;;;5021300;28;20072;-66
2022/07/23 03:27:51;;;;;;;4.03;1.20;;;24.80;51.10;24.00;101414.00;;;;5027294;28;20087;-66
2022/07/23 03:30:37;;;;;;;1.17;1.08;;;24.80;51.10;24.00;101414.00;;;;5027009;28;20033;-66
2022/07/23 03:33:23;;;;;;;1.20;1.10;;;24.80;51.10;24.00;101412.00;;;;5021957;28;20139;-66
2022/07/23 03:36:09;;;;;;;1.60;1.25;;;24.70;51.10;24.00;101420.00;;;;5024514;28;20076;-66
2022/07/23 03:38:55;;;;;;;1.25;1.00;;;24.80;51.10;24.00;101421.00;;;;5024133;28;20052;-66
2022/07/23 03:41:41;;;;;;;1.38;1.00;;;24.80;51.20;24.00;101420.00;;;;5019408;28;20491;-66
2022/07/23 03:44:27;;;;;;;0.93;0.93;;;24.80;51.10;24.00;101415.00;;;;5024022;28;20048;-66
2022/07/23 03:47:13;;;;;;;1.77;1.20;;;24.80;51.20;24.00;101418.00;;;;5028592;28;20103;-66
2022/07/23 03:49:59;;;;;;;1.40;1.20;;;24.80;51.10;23.90;101420.00;;;;5021065;28;20164;-66
2022/07/23 03:52:46;;;;;;;1.08;1.00;;;24.80;51.20;24.00;101412.00;;;;5022020;28;20045;-66
2022/07/23 03:55:32;;;;;;;1.13;1.00;;;24.80;51.20;23.90;101417.00;;;;5020973;28;20054;-66
2022/07/23 03:58:18;;;;;;;1.30;1.00;;;24.70;51.10;24.00;101418.00;;;;5023491;28;20140;-66
2022/07/23 04:01:04;;;;;;;1.10;1.00;;;24.80;51.20;23.90;101418.00;;;;5020041;28;20075;-66
2022/07/23 04:03:50;;;;;;;1.15;1.05;;;24.80;51.20;23.90;101414.00;;;;5021964;28;20768;-66
2022/07/23 04:06:36;;;;;;;1.55;1.05;;;24.70;51.10;23.90;101422.00;;;;5025050;28;20037;-66
2022/07/23 04:09:22;;;;;;;1.13;1.02;;;24.70;51.10;23.90;101406.00;;;;5025147;28;20034;-66
2022/07/23 04:12:08;;;;;;;1.73;0.90;;;24.70;51.10;23.90;101409.00;;;;5025079;28;20034;-66
2022/07/23 04:14:54;;;;;;;2.13;1.02;;;24.70;51.20;23.90;101398.00;;;;5020790;28;20072;-66
2022/07/23 04:17:40;;;;;;;1.35;1.00;;;24.80;51.20;23.90;101408.00;;;;5019402;28;20045;-66
2022/07/23 04:20:26;;;;;;;1.08;0.98;;;24.70;51.10;23.90;101416.00;;;;5023509;28;20443;-66
2022/07/23 04:23:12;;;;;;;1.20;1.00;;;24.70;51.20;23.90;101421.00;;;;5018714;28;20045;-66
2022/07/23 04:25:58;;;;;;;1.20;1.08;;;24.70;51.20;23.90;101420.00;;;;5021899;28;20479;-66
2022/07/23 04:28:44;;;;;;;0.82;0.82;;;24.70;51.20;23.90;101419.00;;;;5016187;28;20092;-66
2022/07/23 04:31:30;;;;;;;1.00;0.98;;;24.70;51.20;23.90;101411.00;;;;5023440;28;20403;-66
2022/07/23 04:34:16;;;;;;;1.85;0.90;;;24.70;51.20;23.90;101422.00;;;;5022349;28;20049;-66
2022/07/23 04:37:02;;;;;;;1.38;1.08;;;24.60;51.10;23.90;101419.00;;;;5025332;28;20165;-66
2022/07/23 04:39:49;;;;;;;1.38;1.00;;;24.70;51.20;23.90;101411.00;;;;5018774;28;20141;-66
2022/07/23 04:42:35;;;;;;;1.23;0.98;;;24.70;51.20;23.90;101418.00;;;;5021632;28;20049;-66
2022/07/23 04:45:21;;;;;;;2.53;1.20;;;24.70;51.30;23.90;101432.00;;;;5022323;28;20570;-66
2022/07/23 04:48:07;;;;;;;1.23;0.90;;;24.60;51.20;23.90;101423.00;;;;5037399;28;20037;-66
2022/07/23 04:50:53;;;;;;;1.67;1.10;;;24.60;51.10;23.80;101421.00;;;;5024335;28;20041;-65
2022/07/23 04:53:39;;;;;;;1.60;0.90;;;24.60;51.20;23.90;101426.00;;;;5024559;28;20115;-66
2022/07/23 04:56:25;;;;;;;1.98;1.13;;;24.70;51.30;23.90;101425.00;;;;5019634;28;20111;-66
2022/07/23 04:59:11;;;;;;;0.95;0.93;;;24.60;51.20;23.90;101430.00;;;;5022717;28;20055;-66
2022/07/23 05:01:57;;;;;;;1.77;1.02;;;24.60;51.20;23.80;101429.00;;;;5025429;28;20057;-66
2022/07/23 05:04:43;;;;;;;0.75;0.75;;;24.60;51.10;23.80;101429.00;;;;5020602;28;20037;-66
2022/07/23 05:07:29;;;;;;;1.02;0.98;;;24.60;51.10;23.80;101421.00;;;;5019472;28;20037;-66
2022/07/23 05:10:15;;;;;;;0.93;0.93;;;24.60;51.10;23.80;101427.00;;;;5020121;28;20045;-66
2022/07/23 05:13:01;;;;;;;1.20;0.95;;;24.60;51.10;23.80;101426.00;;;;5023973;28;20041;-66
2022/07/23 05:15:47;;;;;;;1.13;0.75;;;24.60;51.20;23.80;101428.00;;;;5015411;28;20743;-66
2022/07/23 05:18:33;;;;;;;1.20;1.10;;;24.60;51.10;23.80;101426.00;;;;5029159;28;20488;-66
2022/07/23 05:21:20;;;;;;;1.48;0.90;;;24.70;51.20;23.80;101429.00;;;;5019589;28;20143;-66
2022/07/23 05:24:06;;;;;;;1.95;1.20;;;24.60;51.20;23.80;101424.00;;;;5024930;28;20066;-66
2022/07/23 05:26:56;;;;;;;2.75;1.13;;;24.60;51.30;23.80;101434.00;;;;5009966;28;20415;-66
2022/07/23 05:29:42;;;;;;;1.95;0.95;;;24.60;51.20;23.80;101439.00;;;;5023705;28;20042;-66
2022/07/23 05:32:28;;;;;;;1.20;1.00;;;24.60;51.20;23.80;101448.00;;;;5022345;28;20041;-66
2022/07/23 05:35:14;;;;;;;1.38;1.05;;;24.60;51.10;23.80;101443.00;;;;5022010;28;20246;-66
2022/07/23 05:38:00;;;;;;;1.10;0.93;;;24.60;51.10;23.80;101448.00;;;;5024651;28;20033;-66
2022/07/23 05:40:46;;;;;;;0.80;0.80;;;24.60;51.10;23.80;101454.00;;;;5020961;28;20033;-66
2022/07/23 05:43:32;;;;;;;1.40;0.98;;;24.60;51.10;23.80;101458.00;;;;5023645;28;20050;-66
2022/07/23 05:46:18;;;;;;;2.17;1.00;;;24.70;51.20;23.80;101455.00;;;;5018576;28;20438;-66
2022/07/23 05:49:04;;;;;;;1.90;0.95;;;24.60;51.20;23.80;101470.00;;;;5018457;28;20045;-66
2022/07/23 05:51:50;;;;;;;2.45;1.17;;;24.60;51.20;23.80;101469.00;;;;5023724;28;20042;-66
2022/07/23 05:54:36;;;;;;;1.52;1.23;;;24.60;51.10;23.80;101475.00;;;;5022229;28;20410;-66
2022/07/23 05:57:22;;;;;;;2.42;1.00;;;24.60;51.10;23.80;101475.00;;;;5024569;28;20045;-66
2022/07/23 06:00:10;;;;;;;1.23;1.10;;;24.70;51.20;23.80;101475.00;;;;5020141;28;20454;-66
2022/07/23 06:02:56;;;;;;;1.40;1.30;;;24.70;51.20;23.80;101469.00;;;;5012101;28;20076;-65
2022/07/23 06:05:42;;;;;;;1.45;0.90;;;24.60;51.10;23.80;101475.00;;;;5023882;28;20037;-66
2022/07/23 06:08:28;;;;;;;1.73;1.10;;;24.70;51.20;23.80;101470.00;;;;5023770;28;20037;-66
2022/07/23 06:11:14;;;;;;;1.30;1.20;;;24.70;51.90;23.90;101481.00;;;;5022800;28;20046;-66
2022/07/23 06:14:00;;;;;;;1.50;1.40;;;24.70;51.20;23.80;101479.00;;;;5017967;28;20041;-66
2022/07/23 06:16:46;;;;;;;1.27;1.15;;;24.70;51.20;23.90;101477.00;;;;5022798;28;20056;-66
2022/07/23 06:19:32;;;;;;;1.15;1.05;;;24.70;51.20;23.80;101482.00;;;;5021701;28;20042;-66
2022/07/23 06:22:18;;;;;;;1.58;1.00;;;24.70;51.10;23.80;101491.00;;;;5023515;28;20049;-66
2022/07/23 06:25:05;;;;;;;1.35;1.15;;;24.70;51.10;23.90;101494.00;;;;5030183;28;20507;-66
2022/07/23 06:27:51;;;;;;;1.67;0.98;;;24.70;51.80;23.90;101494.00;;;;5028407;28;20045;-66
2022/07/23 06:30:37;;;;;;;1.42;0.90;;;24.70;51.10;23.80;101499.00;;;;5026893;28;20071;-66
2022/07/23 06:33:23;;;;;;;3.10;1.20;;;24.70;51.10;23.90;101505.00;;;;5034397;28;20037;-66
2022/07/23 06:36:10;;;;;;;1.65;1.00;;;24.70;51.10;23.90;101500.00;;;;5018223;28;20049;-66
2022/07/23 06:38:56;;;;;;;2.47;1.00;;;24.70;51.00;23.90;101502.00;;;;5022973;28;20038;-66
2022/07/23 06:41:42;;;;;;;1.48;1.00;;;24.70;51.10;23.90;101507.00;;;;5027631;28;20095;-66
2022/07/23 06:44:28;;;;;;;1.40;1.00;;;24.70;51.10;23.90;101507.00;;;;5025668;28;20041;-66
2022/07/23 06:47:14;;;;;;;1.00;0.70;;;24.70;51.00;23.90;101511.00;;;;5030257;28;20592;-66
2022/07/23 06:50:00;;;;;;;1.42;1.05;;;24.70;51.00;23.90;101508.00;;;;5020548;28;20040;-66
2022/07/23 06:52:46;;;;;;;1.45;1.00;;;24.70;51.10;23.90;101509.00;;;;5023770;28;20041;-66
2022/07/23 06:55:32;;;;;;;1.10;0.88;;;24.70;51.00;23.90;101506.00;;;;5028658;28;20430;-66
2022/07/23 06:58:19;;;;;;;1.00;0.90;;;24.70;51.00;23.90;101501.00;;;;5029080;28;20049;-66
2022/07/23 07:01:05;;;;;;;1.17;0.70;;;24.70;50.90;23.90;101503.00;;;;5029219;28;20053;-66
2022/07/23 07:03:51;;;;;;;2.30;0.80;;;24.80;51.00;23.90;101509.00;;;;5029155;28;20092;-66
2022/07/23 07:06:37;;;;;;;10.85;2.00;;;24.70;50.90;23.90;101507.00;;;;5031004;28;20048;-66
2022/07/23 07:09:23;;;;;;;4.35;1.40;;;24.70;50.70;23.80;101505.00;;;;5026638;28;20068;-66
2022/07/23 07:12:09;;;;;;;3.70;1.20;;;24.80;50.90;23.80;101508.00;;;;5026714;28;20041;-66
2022/07/23 07:14:56;;;;;;;8.13;1.63;;;24.80;50.80;23.80;101515.00;;;;5024381;28;20518;-71
2022/07/23 07:17:42;;;;;;;3.78;1.35;;;24.80;50.50;23.80;101512.00;;;;5024434;28;20037;-66
2022/07/23 07:20:28;;;;;;;5.28;1.83;;;24.80;50.70;23.70;101514.00;;;;5023342;28;20060;-66
2022/07/23 07:23:15;;;;;;;4.82;1.60;;;24.80;50.60;23.70;101520.00;;;;5026308;28;20045;-66
2022/07/23 07:26:01;;;;;;;6.25;1.50;;;24.80;50.00;23.70;101515.00;;;;5022313;28;20040;-67
2022/07/23 07:28:47;;;;;;;6.05;1.60;;;24.80;50.00;23.70;101517.00;;;;5031298;28;20390;-65
2022/07/23 07:31:33;;;;;;;5.25;1.63;;;24.80;49.90;23.60;101511.00;;;;5020950;28;20037;-65
2022/07/23 07:34:19;;;;;;;2.92;1.33;;;24.70;49.90;23.60;101521.00;;;;5028459;28;20048;-65
2022/07/23 07:37:05;;;;;;;2.83;1.27;;;24.70;49.70;23.60;101524.00;;;;5021457;28;20048;-65
2022/07/23 07:39:51;;;;;;;2.22;1.00;;;24.70;49.90;23.60;101520.00;;;;5023168;28;20052;-65
2022/07/23 07:42:53;;;;;;;2.70;1.27;;;24.70;50.20;23.60;101520.00;;;;5024828;28;20518;-65
2022/07/23 07:45:39;;;;;;;1.17;1.00;;;24.70;50.20;23.60;101523.00;;;;5022937;28;20081;-65
2022/07/23 07:48:25;;;;;;;2.70;0.95;;;24.70;50.30;23.60;101525.00;;;;5024081;28;20506;-65
2022/07/23 07:51:11;;;;;;;3.58;0.95;;;24.70;50.30;23.70;101513.00;;;;5024090;28;20096;-65
2022/07/23 07:53:57;;;;;;;1.40;0.80;;;24.70;50.40;23.70;101527.00;;;;5026482;28;20436;-65
2022/07/23 07:56:43;;;;;;;1.67;1.02;;;24.70;50.30;23.70;101528.00;;;;5018553;28;20049;-65
2022/07/23 07:59:29;;;;;;;1.80;0.88;;;24.60;50.30;23.70;101523.00;;;;5020122;28;20476;-65
2022/07/23 08:02:15;;;;;;;4.00;0.77;;;24.70;50.30;23.70;101529.00;;;;5026004;28;20064;-65
2022/07/23 08:05:01;;;;;;;2.83;1.00;;;24.70;50.40;23.80;101528.00;;;;5023184;28;20061;-65
2022/07/23 08:07:48;;;;;;;1.73;0.90;;;24.60;50.30;23.80;101527.00;;;;5024756;28;20410;-64
2022/07/23 08:10:34;;;;;;;2.15;0.80;;;24.70;50.40;23.80;101535.00;;;;5024271;28;20491;-65
2022/07/23 08:13:20;;;;;;;3.22;0.80;;;24.70;50.30;23.80;101537.00;;;;5024700;28;20053;-65
2022/07/23 08:16:06;;;;;;;1.92;0.60;;;24.70;50.30;23.80;101543.00;;;;5021237;28;20049;-65
2022/07/23 08:18:52;;;;;;;1.15;0.70;;;24.70;50.30;23.80;101539.00;;;;5025708;28;20041;-65
2022/07/23 08:21:38;;;;;;;2.67;0.70;;;24.80;50.30;23.80;101542.00;;;;5022377;28;20045;-65
2022/07/23 08:24:24;;;;;;;4.28;0.70;;;24.70;50.30;23.80;101548.00;;;;5027860;28;20048;-65
2022/07/23 08:27:10;;;;;;;2.67;0.82;;;24.70;50.20;23.80;101544.00;;;;5027749;28;20600;-66
2022/07/23 08:29:56;;;;;;;1.92;0.80;;;24.80;50.30;23.80;101547.00;;;;5021876;28;20049;-71
2022/07/23 08:33:03;;;;;;;1.20;0.60;;;24.80;50.30;23.80;101550.00;;;;5025198;28;20566;-67
2022/07/23 08:35:52;;;;;;;2.42;0.85;;;24.80;50.20;23.90;101553.00;;;;5022238;28;20045;-68
2022/07/23 08:38:39;;;;;;;1.48;0.50;;;24.80;50.10;23.90;101557.00;;;;5021522;28;20491;-66
2022/07/23 08:41:25;;;;;;;1.27;0.60;;;24.80;50.20;23.90;101554.00;;;;5021340;28;20053;-66
2022/07/23 08:44:11;;;;;;;0.73;0.57;;;24.80;50.20;23.90;101548.00;;;;5028794;28;20400;-66
2022/07/23 08:46:57;;;;;;;2.38;1.17;;;24.80;50.20;23.90;101556.00;;;;5026164;28;20041;-66
2022/07/23 08:49:45;;;;;;;0.82;0.60;;;24.80;49.90;23.90;101545.00;;;;5020993;28;20034;-66
2022/07/23 08:52:31;;;;;;;2.38;0.70;;;24.80;50.10;23.90;101554.00;;;;5039024;28;20049;-66
2022/07/23 08:55:18;;;;;;;1.60;0.60;;;24.80;50.00;23.90;101543.00;;;;5027467;28;20049;-66
2022/07/23 08:58:04;;;;;;;0.70;0.60;;;24.80;50.10;23.90;101548.00;;;;5026449;28;20402;-66
2022/07/23 09:00:50;;;;;;;0.82;0.50;;;24.80;50.00;23.90;101547.00;;;;5022962;28;20400;-66
2022/07/23 09:03:38;;;;;;;4.68;0.85;;;24.80;50.00;23.90;101554.00;;;;5021306;28;20080;-66
2022/07/23 09:06:24;;;;;;;1.80;0.65;;;24.80;50.10;23.90;101562.00;;;;5023629;28;20056;-66
2022/07/23 09:09:17;;;;;;;1.23;0.43;;;24.80;50.00;23.90;101560.00;;;;5023535;28;20037;-66
2022/07/23 09:12:09;;;;;;;0.82;0.50;;;24.80;50.00;23.90;101554.00;;;;5022583;28;20473;-66
2022/07/23 09:14:55;;;;;;;0.52;0.47;;;24.60;49.80;23.90;101557.00;;;;5029575;28;20140;-66
2022/07/23 09:17:42;;;;;;;0.40;0.40;;;24.80;50.00;23.90;101550.00;;;;5016381;28;20072;-66
2022/07/23 09:20:28;;;;;;;0.35;0.35;;;24.80;49.90;23.90;101557.00;;;;5039488;28;20150;-66
2022/07/23 09:23:14;;;;;;;1.83;0.95;;;24.80;49.90;23.90;101551.00;;;;5019706;28;20048;-66
2022/07/23 09:26:01;;;;;;;1.23;0.47;;;24.80;49.90;23.90;101569.00;;;;5023168;28;20049;-66
2022/07/23 09:29:21;;;;;;;0.80;0.50;;;24.80;49.90;23.90;101556.00;;;;5021806;28;20041;-66
2022/07/23 09:32:07;;;;;;;0.63;0.55;;;24.80;49.70;23.90;101559.00;;;;5017427;28;20403;-66
2022/07/23 09:34:54;;;;;;;1.63;0.60;;;24.80;49.80;23.90;101557.00;;;;5005311;28;20345;-66
2022/07/23 09:37:40;;;;;;;1.20;0.45;;;24.90;50.20;23.90;101559.00;;;;5024445;28;20053;-66
2022/07/23 09:40:26;;;;;;;1.52;0.60;;;24.80;49.60;23.90;101558.00;;;;5010130;28;20242;-66
2022/07/23 09:43:14;;;;;;;1.33;0.63;;;24.90;49.70;23.90;101565.00;;;;5022422;28;20034;-66
2022/07/23 09:46:24;;;;;;;0.50;0.40;;;24.90;49.80;23.90;101565.00;;;;5012151;28;20077;-66
2022/07/23 09:49:16;;;;;;;3.25;0.40;;;24.80;49.70;23.90;101561.00;;;;5022399;28;20034;-66
2022/07/23 09:52:02;;;;;;;2.15;0.60;;;24.90;49.70;23.90;101556.00;;;;5016516;28;20048;-66
2022/07/23 09:54:48;;;;;;;1.30;0.50;;;24.90;49.80;23.90;101560.00;;;;5017546;28;20076;-66
2022/07/23 09:57:34;;;;;;;1.27;0.50;;;24.90;49.70;23.90;101558.00;;;;4992018;28;20034;-66
2022/07/23 10:00:20;;;;;;;1.65;0.52;;;25.00;49.70;23.90;101556.00;;;;5028108;28;20041;-66
2022/07/23 10:03:07;;;;;;;1.10;0.45;;;24.90;49.60;23.90;101556.00;;;;5015540;28;20037;-66
2022/07/23 10:05:53;;;;;;;0.50;0.50;;;24.90;49.70;23.90;101548.00;;;;5024994;28;20139;-66
2022/07/23 10:08:42;;;;;;;3.17;1.75;;;24.90;49.30;23.90;101552.00;;;;5025028;28;20034;-66
2022/07/23 10:11:28;;;;;;;1.00;0.35;;;24.90;49.40;23.90;101547.00;;;;5038773;28;20042;-66
2022/07/23 10:14:15;;;;;;;0.98;0.32;;;24.90;49.20;23.90;101547.00;;;;5041140;28;20552;-66
2022/07/23 10:17:03;;;;;;;2.08;0.52;;;24.90;49.40;23.90;101539.00;;;;5024578;28;20091;-66
2022/07/23 10:19:49;;;;;;;0.60;0.30;;;24.80;49.40;23.90;101553.00;;;;5029703;28;20045;-66
2022/07/23 10:22:38;;;;;;;0.85;0.60;;;24.90;49.40;23.90;101549.00;;;;5023625;28;20058;-67
2022/07/23 10:25:39;;;;;;;1.30;0.43;;;24.90;49.50;23.90;101555.00;;;;5015951;28;20124;-66
2022/07/23 10:28:56;;;;;;;1.27;0.50;;;24.90;49.30;23.90;101560.00;;;;5037311;28;20576;-66
2022/07/23 10:32:00;;;;;;;0.88;0.50;;;24.90;49.00;23.90;101556.00;;;;5020732;28;20044;-66
2022/07/23 10:35:30;;;;;;;0.35;0.32;;;24.90;49.30;23.90;101552.00;;;;5019221;28;20049;-66
2022/07/23 10:38:24;;;;;;;;;;;24.90;48.90;23.90;101548.00;;;;5025932;28;20045;-67
2022/07/23 10:41:10;;;;;;;0.70;0.43;;;25.00;50.00;23.90;101547.00;;;;5041098;28;19952;-66
2022/07/23 10:44:16;;;;;;;1.00;0.60;;;25.00;49.30;23.90;101559.00;;;;5023647;28;20046;-66
2022/07/23 10:49:50;;;;;;;;;;;25.00;49.10;23.90;101552.00;;;;5025490;28;20041;-66
2022/07/23 10:52:36;;;;;;;1.73;0.40;;;25.00;49.40;23.90;101552.00;;;;5052368;28;19917;-66
2022/07/23 10:55:24;;;;;;;1.65;0.60;;;25.00;49.30;23.90;101550.00;;;;5024700;28;20559;-66
2022/07/23 10:58:11;;;;;;;0.70;0.45;;;25.00;49.30;23.90;101548.00;;;;5024387;28;20425;-66
2022/07/23 11:00:57;;;;;;;0.57;0.50;;;24.90;49.30;24.00;101553.00;;;;5021964;28;20076;-66
2022/07/23 11:03:55;;;;;;;2.58;0.45;;;25.00;49.30;24.00;101558.00;;;;5052933;28;20044;-66
2022/07/23 11:07:01;;;;;;;1.58;0.40;;;25.00;49.40;24.00;101550.00;;;;5018131;28;20045;-66
2022/07/23 11:09:47;;;;;;;0.93;0.50;;;25.00;49.30;24.00;101554.00;;;;5017496;28;20498;-66
2022/07/23 11:12:34;;;;;;;0.50;0.50;;;25.00;49.30;24.00;101553.00;;;;5023254;28;20077;-66
2022/07/23 11:15:20;;;;;;;0.45;0.40;;;25.00;49.10;24.00;101550.00;;;;5009770;28;20041;-66
2022/07/23 11:18:06;;;;;;;1.20;0.43;;;25.00;49.20;24.00;101553.00;;;;5027709;28;20084;-66
2022/07/23 11:20:53;;;;;;;0.90;0.40;;;25.10;49.20;24.00;101545.00;;;;5023644;28;20049;-66
2022/07/23 11:23:58;;;;;;;0.77;0.60;;;25.00;49.20;24.00;101548.00;;;;5051614;28;20482;-66
2022/07/23 11:26:59;;;;;;;0.80;0.40;;;25.00;49.10;24.00;101550.00;;;;5022634;28;20108;-66
2022/07/23 11:29:45;;;;;;;0.52;0.40;;;25.00;49.00;24.00;101549.00;;;;5011337;28;20045;-66
2022/07/23 11:32:35;;;;;;;1.08;0.55;;;25.10;49.00;24.00;101544.00;;;;5020635;28;20076;-66
2022/07/23 11:35:24;;;;;;;0.47;0.40;;;25.10;49.00;24.00;101552.00;;;;5010426;28;20483;-66
2022/07/23 11:38:21;;;;;;;1.30;0.30;;;25.10;49.00;24.00;101555.00;;;;5025427;28;20124;-66
2022/07/23 11:41:07;;;;;;;0.50;0.30;;;25.00;48.90;24.00;101545.00;;;;5008538;28;20398;-66
2022/07/23 11:43:53;;;;;;;1.23;0.80;;;25.00;48.90;24.00;101548.00;;;;5037009;28;20038;-66
2022/07/23 11:46:39;;;;;;;1.83;0.47;;;25.10;49.00;24.10;101549.00;;;;5023424;28;20033;-66
2022/07/23 11:49:26;;;;;;;0.40;0.32;;;25.10;49.00;24.10;101547.00;;;;5022149;28;20053;-66
2022/07/23 11:52:13;;;;;;;0.43;0.40;;;25.00;48.60;24.10;101547.00;;;;5021874;28;20426;-66
2022/07/23 11:55:02;;;;;;;;;;;25.10;48.80;24.00;101543.00;;;;5024786;28;20103;-66
2022/07/23 11:57:49;;;;;;;;;;;25.10;49.80;24.00;101544.00;;;;5040108;28;19940;-66
2022/07/23 12:00:35;;;;;;;2.33;0.43;;;25.20;49.10;24.00;101548.00;;;;5050921;28;19916;-66
2022/07/23 12:03:22;;;;;;;0.57;0.40;;;25.20;48.50;24.00;101546.00;;;;5009702;28;20041;-66
2022/07/23 12:06:08;;;;;;;0.50;0.50;;;25.20;48.50;24.00;101549.00;;;;5022815;28;20542;-66
2022/07/23 12:08:54;;;;;;;0.85;0.50;;;25.20;48.50;24.00;101553.00;;;;5026227;28;20048;-66
2022/07/23 12:11:56;;;;;;;1.48;0.32;;;25.20;48.60;24.10;101552.00;;;;5011638;28;20494;-66
2022/07/23 12:14:52;;;;;;;0.70;0.40;;;25.20;48.60;24.00;101552.00;;;;5022288;28;20482;-66
2022/07/23 12:17:40;;;;;;;0.57;0.47;;;25.20;48.70;24.10;101550.00;;;;5028409;28;20033;-66
2022/07/23 12:20:37;;;;;;;;;;;25.20;48.80;24.00;101555.00;;;;5021065;28;20037;-66